Flight Track Log - Related Links

Times and Time Zones

All times are in EDT time to prevent confusion due to time zone crossing. See the EGF3773 flight status page for this flight to view local times or setup timezone preferences in your user account.

Time Position Orientation Groundspeed Altitude Reporting Facility
EDT Latitude Longitude Course Direction KTS MPH feet Rate Location/Type
Wed 08:28:43 PM 39.8833 -104.6167 66° East 189 217 6,200  Level Denver TRACON
Wed 08:29:43 PM 39.8667 -104.5333 105° East 229 264 8,800 2,300 Climbing Denver TRACON
Wed 08:30:00 PM 39.9016 -104.3799 80° East  Level FlightAware Approximate
Wed 08:30:43 PM 39.8667 -104.4333 90° East 272 313 10,800  Level Denver TRACON
Wed 08:31:00 PM 39.9240 -104.2351 73° East  Level FlightAware Approximate
Wed 08:31:07 PM 39.8686 -104.3939 86° East 272 313 12,000  Level Denver Center
Wed 08:32:00 PM 39.9567 -104.0935 73° East  Level FlightAware Approximate
Wed 08:32:09 PM 39.8967 -104.2856 71° East 315 362 13,600  Level Denver Center
Wed 08:33:00 PM 39.9777 -103.9503 66° East  Level FlightAware Approximate
Wed 08:33:11 PM 39.9203 -104.1908 72° East 324 373 15,300  Level Denver Center
Wed 08:34:13 PM 39.9556 -104.0442 73° East 348 400 17,600 1,935 Climbing Denver Center
Wed 08:35:15 PM 39.9861 -103.9200 72° East 360 414 19,300 1,694 Climbing Denver Center
Wed 08:36:17 PM 40.0186 -103.7800 73° East 375 432 21,100 1,597 Climbing Denver Center
Wed 08:37:19 PM 40.0400 -103.6569 77° East 363 418 22,600 1,597 Climbing Denver Center
Wed 08:38:21 PM 40.0656 -103.5017 78° East 391 450 24,400 1,500 Climbing Denver Center
Wed 08:39:23 PM 40.0872 -103.3650 78° East 399 459 25,700 1,306 Climbing Denver Center
Wed 08:40:25 PM 40.1133 -103.2025 78° East 410 472 27,100 1,258 Climbing Denver Center
Wed 08:41:27 PM 40.1364 -103.0619 78° East 413 475 28,300 1,210 Climbing Denver Center
Wed 08:42:29 PM 40.1625 -102.8933 78° East 422 486 29,600 1,065 Climbing Denver Center
Wed 08:43:31 PM 40.1858 -102.7464 78° East 430 495 30,500 829 Climbing Denver Center
Wed 08:44:32 PM 40.2044 -102.6233 79° East 433 498 31,300 1,024 Climbing Denver Center
Wed 08:45:34 PM 40.2356 -102.4222 78° East 443 510 32,600 882 Climbing Denver Center
Wed 08:46:48 PM 40.2592 -102.2700 78° East 446 513 33,300 1,235 Climbing Denver Center
Wed 08:47:50 PM 40.2894 -102.0681 79° East 440 506 35,400 1,500 Climbing Denver Center
Wed 08:48:52 PM 40.3139 -101.8972 79° East 430 495 36,400 774 Climbing Denver Center
Wed 08:49:54 PM 40.3361 -101.7514 79° East 428 493 37,000 290 Climbing Denver Center
Wed 08:50:56 PM 40.3619 -101.5739 79° East 443 510 37,000  Level Denver Center
Wed 08:51:58 PM 40.3853 -101.4164 79° East 458 527 37,000  Level Denver Center
Wed 08:53:00 PM 40.4111 -101.2283 80° East 470 541 37,000  Level Denver Center
Wed 08:54:01 PM 40.4336 -101.0703 79° East 464 534 37,000  Level Denver Center
Wed 08:55:03 PM 40.4617 -100.9139 77° East 463 533 37,000  Level Denver Center
Wed 08:56:05 PM 40.5133 -100.7675 65° Northeast 464 534 37,000  Level Denver Center
Wed 08:57:07 PM 40.5850 -100.5722 64° Northeast 469 540 37,000  Level Denver Center
Wed 08:58:08 PM 40.6306 -100.4492 64° Northeast 473 544 37,000  Level Denver Center
Wed 08:59:11 PM 40.7033 -100.2528 64° Northeast 473 544 37,000  Level Denver Center
Wed 09:00:12 PM 40.7572 -100.1042 64° Northeast 472 543 37,000  Level Denver Center
Wed 09:01:14 PM 40.8111 -99.9561 64° Northeast 471 542 37,000  Level Denver Center
Wed 09:02:16 PM 40.8756 -99.7797 64° Northeast 471 542 37,000  Level Denver Center
Wed 09:03:18 PM 40.9319 -99.6222 65° Northeast 473 544 37,000  Level Denver Center
Wed 09:04:20 PM 40.9883 -99.4653 65° Northeast 472 543 37,000  Level Denver Center
Wed 09:05:21 PM 41.0444 -99.3078 65° Northeast 472 543 37,000  Level Denver Center
Wed 09:06:23 PM 41.1000 -99.1500 65° Northeast 472 543 37,000  Level Denver Center
Wed 09:06:39 PM 41.1219 -99.0889 64° Northeast 472 543 37,000  Level Minneapolis Center
Wed 09:07:25 PM 41.1589 -98.9811 65° Northeast 471 542 37,000  Level Denver Center
Wed 09:08:27 PM 41.2208 -98.8053 65° Northeast 471 542 37,000  Level Denver Center
Wed 09:08:43 PM 41.2325 -98.7733 64° Northeast 471 542 37,000  Level Minneapolis Center
Wed 09:09:45 PM 41.2872 -98.6142 65° Northeast 471 542 37,000  Level Minneapolis Center
Wed 09:10:47 PM 41.3464 -98.4422 65° Northeast 469 540 37,000  Level Minneapolis Center
Wed 09:11:49 PM 41.4003 -98.2825 66° East 471 542 37,000  Level Minneapolis Center
Wed 09:12:51 PM 41.4528 -98.1211 66° East 473 544 37,000  Level Minneapolis Center
Wed 09:13:53 PM 41.5114 -97.9436 66° East 473 544 37,000  Level Minneapolis Center
Wed 09:14:56 PM 41.5631 -97.7819 67° East 473 544 37,000  Level Minneapolis Center
Wed 09:15:58 PM 41.6156 -97.6197 67° East 474 545 37,000  Level Minneapolis Center
Wed 09:17:00 PM 41.6667 -97.4564 67° East 475 547 37,000  Level Minneapolis Center
Wed 09:18:14 PM 41.7192 -97.2919 67° East 479 551 37,000  Level Minneapolis Center
Wed 09:19:28 PM 41.7525 -97.0789 78° East 484 557 37,000  Level Minneapolis Center
Wed 09:20:30 PM 41.7814 -96.8631 80° East 488 562 37,000  Level Minneapolis Center
Wed 09:21:33 PM 41.8094 -96.6428 80° East 495 570 37,000  Level Minneapolis Center
Wed 09:22:35 PM 41.8325 -96.4600 80° East 496 571 37,000  Level Minneapolis Center
Wed 09:23:37 PM 41.8558 -96.2764 80° East 496 571 37,000  Level Minneapolis Center
Wed 09:24:51 PM 41.8772 -96.0919 81° East 496 571 37,000  Level Minneapolis Center
Wed 09:25:53 PM 41.9039 -95.8706 81° East 496 571 37,000  Level Minneapolis Center
Wed 09:27:19 PM 41.9306 -95.6539 81° East 489 563 37,000  Level Minneapolis Center
Wed 09:28:22 PM 41.9589 -95.4006 81° East 488 562 37,000  Level Minneapolis Center
Wed 09:29:24 PM 41.9803 -95.2206 81° East 487 560 37,000  Level Minneapolis Center
Wed 09:30:26 PM 41.9992 -95.0422 82° East 482 555 37,000  Level Minneapolis Center
Wed 09:31:27 PM 42.0189 -94.8628 82° East 485 558 37,000  Level Minneapolis Center
Wed 09:32:29 PM 42.0383 -94.6847 82° East 483 556 37,000  Level Minneapolis Center
Wed 09:33:31 PM 42.0589 -94.5069 81° East 481 554 37,000  Level Minneapolis Center
Wed 09:34:33 PM 42.0764 -94.3289 82° East 480 552 37,000  Level Minneapolis Center
Wed 09:35:35 PM 42.0961 -94.1494 82° East 483 556 37,000  Level Minneapolis Center
Wed 09:36:36 PM 42.1175 -93.9356 82° East 482 555 37,000  Level Minneapolis Center
Wed 09:37:38 PM 42.1375 -93.7550 81° East 484 557 37,000  Level Minneapolis Center
Wed 09:38:40 PM 42.1514 -93.6133 82° East 485 558 37,000  Level Minneapolis Center
Wed 09:39:42 PM 42.1722 -93.4003 82° East 483 556 37,000  Level Minneapolis Center
Wed 09:40:43 PM 42.1900 -93.2242 82° East 480 552 37,000  Level Minneapolis Center
Wed 09:41:45 PM 42.2061 -93.0456 83° East 484 557 37,000  Level Minneapolis Center
Wed 09:42:47 PM 42.2256 -92.8333 83° East 482 555 37,000  Level Minneapolis Center
Wed 09:43:48 PM 42.2428 -92.6561 82° East 483 556 37,000  Level Minneapolis Center
Wed 09:44:50 PM 42.2583 -92.4783 83° East 483 556 37,000 -435 Level Minneapolis Center
Wed 09:45:52 PM 42.2744 -92.2989 83° East 486 559 36,100 -976 Descending Minneapolis Center
Wed 09:46:53 PM 42.2906 -92.1147 83° East 495 570 35,000 -1,171 Descending Minneapolis Center
Wed 09:47:55 PM 42.3092 -91.8925 83° East 503 579 33,700 -1,161 Descending Minneapolis Center
Wed 09:48:57 PM 42.3233 -91.7156 84° East 492 566 32,600 -1,083 Descending Minneapolis Center
Wed 09:50:08 PM 42.3411 -91.5094 83° East 471 542 31,300 -1,038 Descending Chicago Center
Wed 09:51:10 PM 42.3539 -91.3344 84° East 476 548 30,300 -1,024 Descending Chicago Center
Wed 09:52:11 PM 42.3686 -91.1547 84° East 487 560 29,200 -634 Descending Chicago Center
Wed 09:53:13 PM 42.3811 -90.9825 84° East 471 542 29,000 -98 Descending Chicago Center
Wed 09:54:14 PM 42.3975 -90.7769 84° East 465 535 29,000 -146 Level Chicago Center
Wed 09:55:16 PM 42.4114 -90.6064 84° East 463 533 28,700 -677 Descending Chicago Center
Wed 09:56:18 PM 42.4303 -90.4319 82° East 471 542 27,600 -976 Descending Chicago Center
Wed 09:57:19 PM 42.4475 -90.2642 82° East 455 524 26,700 -1,122 Descending Chicago Center
Wed 09:58:21 PM 42.4628 -90.0994 83° East 448 516 25,300 -1,610 Descending Chicago Center
Wed 09:59:22 PM 42.4797 -89.9111 83° East 428 493 23,400 -1,707 Descending Chicago Center
Wed 10:00:24 PM 42.4972 -89.7694 80° East 394 453 21,800 -1,659 Descending Chicago Center
Wed 10:01:25 PM 42.5094 -89.6222 84° East 393 452 20,000 -1,707 Descending Chicago Center
Wed 10:02:27 PM 42.5239 -89.4808 82° East 386 444 18,300 -1,610 Descending Chicago Center
Wed 10:03:28 PM 42.5372 -89.3400 83° East 380 437 16,700 -1,610 Descending Chicago Center
Wed 10:04:30 PM 42.5492 -89.1992 83° East 377 434 15,000 -1,366 Descending Chicago Center
Wed 10:05:31 PM 42.5367 -89.0500 96° East 352 405 13,900 -1,171 Descending Chicago Center
Wed 10:06:33 PM 42.5064 -88.9383 110° East 323 372 12,600 -1,122 Descending Chicago Center
Wed 10:07:34 PM 42.4761 -88.8325 111° Southeast 307 353 11,600 -934 Descending Chicago Center
Wed 10:08:35 PM 42.4439 -88.7250 112° Southeast 309 356 10,700 -878 Descending Chicago Center
Wed 10:09:37 PM 42.4128 -88.6228 112° Southeast 298 343 9,800 -829 Descending Chicago Center
Wed 10:10:38 PM 42.3814 -88.5203 112° Southeast 295 339 9,000 -390 Descending Chicago Center
Wed 10:11:40 PM 42.3436 -88.4286 119° Southeast 286 329 9,000 -488 Level Chicago Center
Wed 10:12:41 PM 42.2925 -88.3453 130° Southeast 291 335 8,000 -1,366 Descending Chicago Center
Wed 10:13:43 PM 42.2342 -88.2486 129° Southeast 282 325 6,200 -1,610 Descending Chicago Center
Wed 10:14:44 PM 42.1861 -88.1694 129° Southeast 276 318 4,700 -1,230 Descending Chicago Center
Wed 10:15:45 PM 42.1389 -88.0969 131° Southeast 266 306 3,700 -984 Descending Chicago Center

Login

Don't have an account? Register now (free) for customized features, flight alerts, and more!